createdAt,value
2023-04-04T00:01:45.662Z,57.32
2023-04-04T00:04:12.913Z,59.50
2023-04-04T00:06:44.665Z,60.44
2023-04-04T00:09:14.659Z,60.20
2023-04-04T00:11:42.483Z,61.13
2023-04-04T00:14:09.363Z,62.97
2023-04-04T00:16:37.082Z,61.98
2023-04-04T00:19:03.982Z,62.75
2023-04-04T00:21:31.136Z,62.58
2023-04-04T00:23:58.641Z,60.69
2023-04-04T00:26:26.749Z,61.37
2023-04-04T00:28:53.599Z,64.32
2023-04-04T00:31:21.217Z,62.31
2023-04-04T00:33:48.402Z,67.05
2023-04-04T00:36:15.314Z,68.14
2023-04-04T00:38:42.217Z,65.71
2023-04-04T00:41:08.993Z,64.21
2023-04-04T00:43:36.270Z,64.75
2023-04-04T00:46:03.964Z,63.81
2023-04-04T00:48:30.973Z,63.81
2023-04-04T00:50:57.950Z,63.08
2023-04-04T00:53:24.773Z,63.66
2023-04-04T00:55:51.561Z,64.95
2023-04-04T00:58:19.295Z,62.66
2023-04-04T01:00:46.665Z,61.72
2023-04-04T01:03:14.345Z,59.72
2023-04-04T01:05:41.882Z,61.73
2023-04-04T01:08:09.111Z,63.09
2023-04-04T01:10:36.232Z,60.78
2023-04-04T01:13:03.574Z,62.10
2023-04-04T01:15:30.992Z,61.81
2023-04-04T01:18:00.513Z,61.92
2023-04-04T01:20:31.024Z,60.60
2023-04-04T01:22:59.255Z,63.84
2023-04-04T01:25:32.395Z,62.39
2023-04-04T01:28:06.089Z,60.88
2023-04-04T01:30:35.999Z,62.20
2023-04-04T01:33:16.323Z,61.65
2023-04-04T01:36:07.778Z,61.10
2023-04-04T01:38:43.225Z,61.53
2023-04-04T01:41:12.180Z,60.98
2023-04-04T01:43:46.811Z,60.22
2023-04-04T01:46:14.786Z,60.20
2023-04-04T01:48:42.716Z,61.44
2023-04-04T01:51:10.690Z,61.73
2023-04-04T01:53:37.563Z,60.15
2023-04-04T01:56:04.969Z,60.96
2023-04-04T01:58:35.212Z,60.26
2023-04-04T02:01:01.999Z,63.68
2023-04-04T02:03:28.904Z,60.33
2023-04-04T02:05:55.756Z,61.81
2023-04-04T02:08:22.738Z,61.30
2023-04-04T02:10:57.766Z,60.98
2023-04-04T02:13:25.176Z,60.35
2023-04-04T02:15:52.784Z,59.64
2023-04-04T02:18:20.215Z,59.95
2023-04-04T02:20:47.016Z,60.36
2023-04-04T02:23:13.764Z,60.43
2023-04-04T02:25:40.590Z,62.11
2023-04-04T02:28:09.491Z,60.29
2023-04-04T02:30:36.279Z,60.26
2023-04-04T02:33:04.155Z,58.86
2023-04-04T02:35:31.351Z,58.87
2023-04-04T02:37:58.937Z,58.75
2023-04-04T02:40:39.840Z,58.00
2023-04-04T02:43:07.476Z,59.99
2023-04-04T02:45:35.446Z,60.10
2023-04-04T02:48:10.981Z,61.97
2023-04-04T02:50:43.432Z,61.62
2023-04-04T02:53:13.389Z,60.72
2023-04-04T02:55:40.176Z,63.36
2023-04-04T02:58:07.089Z,64.72
2023-04-04T03:00:34.005Z,64.29
2023-04-04T03:03:01.115Z,65.73
2023-04-04T03:05:35.798Z,63.96
2023-04-04T03:08:03.005Z,65.38
2023-04-04T03:10:32.586Z,67.16
2023-04-04T03:12:59.780Z,64.90
2023-04-04T03:15:29.044Z,64.17
2023-04-04T03:17:56.840Z,64.98
2023-04-04T03:20:26.687Z,64.66
2023-04-04T03:22:53.555Z,69.23
2023-04-04T03:25:20.782Z,67.27
2023-04-04T03:27:47.864Z,64.64
2023-04-04T03:30:21.234Z,68.92
2023-04-04T03:32:48.762Z,68.29
2023-04-04T03:35:16.330Z,66.32
2023-04-04T03:37:43.258Z,66.39
2023-04-04T03:40:10.261Z,65.58
2023-04-04T03:42:37.119Z,65.67
2023-04-04T03:45:08.604Z,67.70
2023-04-04T03:47:36.781Z,65.42
2023-04-04T03:50:03.840Z,67.27
2023-04-04T03:52:32.239Z,64.72
2023-04-04T03:54:59.080Z,64.48
2023-04-04T03:57:27.311Z,65.96
2023-04-04T03:59:54.574Z,67.60
2023-04-04T04:02:22.915Z,67.31
2023-04-04T04:04:49.725Z,67.73
2023-04-04T04:07:16.829Z,66.60
2023-04-04T04:09:43.601Z,68.42
2023-04-04T04:12:10.378Z,68.75
2023-04-04T04:14:37.638Z,68.06
2023-04-04T04:17:04.657Z,68.55
2023-04-04T04:19:31.413Z,66.56
2023-04-04T04:21:58.444Z,70.06
2023-04-04T04:24:25.436Z,66.65
2023-04-04T04:26:52.405Z,65.07
2023-04-04T04:29:19.968Z,66.61
2023-04-04T04:31:46.830Z,66.89
2023-04-04T04:34:14.097Z,66.44
2023-04-04T04:36:42.575Z,71.92
2023-04-04T04:39:27.280Z,67.56
2023-04-04T04:42:06.975Z,71.87
2023-04-04T04:44:36.823Z,70.95
2023-04-04T04:47:04.312Z,69.80
2023-04-04T04:49:31.172Z,73.56
2023-04-04T04:52:00.307Z,70.82
2023-04-04T04:54:27.294Z,76.23
2023-04-04T04:56:55.372Z,77.74
2023-04-04T04:59:22.618Z,73.66
2023-04-04T05:01:49.818Z,70.58
2023-04-04T05:04:17.863Z,72.77
2023-04-04T05:06:57.362Z,75.76
2023-04-04T05:09:24.535Z,76.24
2023-04-04T05:11:51.341Z,76.64
2023-04-04T05:14:22.101Z,79.37
2023-04-04T05:16:56.427Z,76.08
2023-04-04T05:19:27.971Z,72.57
2023-04-04T05:21:57.081Z,71.70
2023-04-04T05:24:38.747Z,70.57
2023-04-04T05:27:06.905Z,71.23
2023-04-04T05:29:39.856Z,71.48
2023-04-04T05:32:07.078Z,69.65
2023-04-04T05:34:36.221Z,71.62
2023-04-04T05:37:07.108Z,70.17
2023-04-04T05:39:34.598Z,70.98
2023-04-04T05:42:05.883Z,72.47
2023-04-04T05:44:37.329Z,70.41
2023-04-04T05:47:05.514Z,70.86
2023-04-04T05:49:32.502Z,68.92
2023-04-04T05:52:01.602Z,70.03
2023-04-04T05:54:31.329Z,70.34
2023-04-04T05:57:01.567Z,63.79
2023-04-04T05:59:44.393Z,56.86
2023-04-04T06:02:14.403Z,51.38
2023-04-04T06:04:46.205Z,43.52
2023-04-04T06:07:19.306Z,41.58
2023-04-04T06:09:50.998Z,39.81
2023-04-04T06:12:19.749Z,39.06
2023-04-04T06:15:09.599Z,39.11
2023-04-04T06:17:37.330Z,37.70
2023-04-04T06:20:05.354Z,35.80
2023-04-04T06:22:35.191Z,33.29
2023-04-04T06:25:03.078Z,32.27
2023-04-04T06:27:30.973Z,31.68
2023-04-04T06:30:00.153Z,31.85
2023-04-04T06:32:28.211Z,31.99
2023-04-04T06:34:55.224Z,31.93
2023-04-04T06:37:43.194Z,31.14
2023-04-04T06:40:20.069Z,31.93
2023-04-04T06:42:52.075Z,32.49
2023-04-04T06:45:21.015Z,35.14
2023-04-04T06:47:51.324Z,34.50
2023-04-04T06:50:25.058Z,31.60
2023-04-04T06:52:52.835Z,31.86
2023-04-04T06:55:19.971Z,31.94
2023-04-04T06:57:47.211Z,32.12
2023-04-04T07:00:14.736Z,31.88
2023-04-04T07:02:41.745Z,32.09
2023-04-04T07:05:10.171Z,31.51
2023-04-04T07:07:37.873Z,29.58
2023-04-04T07:10:04.877Z,28.61
2023-04-04T07:12:32.104Z,28.54
2023-04-04T07:14:59.059Z,29.50
2023-04-04T07:17:26.161Z,28.93
2023-04-04T07:19:53.633Z,29.21
2023-04-04T07:22:20.456Z,27.99
2023-04-04T07:24:48.476Z,27.77
2023-04-04T07:27:15.982Z,28.02
2023-04-04T07:29:42.683Z,28.02
2023-04-04T07:32:09.898Z,28.85
2023-04-04T07:34:36.991Z,29.17
2023-04-04T07:37:03.807Z,29.62
2023-04-04T07:39:31.461Z,32.36
2023-04-04T07:41:58.272Z,31.01
2023-04-04T07:44:25.258Z,31.84
2023-04-04T07:47:02.368Z,34.18
2023-04-04T07:49:33.652Z,34.06
2023-04-04T07:52:03.592Z,35.40
2023-04-04T07:54:30.638Z,34.90
2023-04-04T07:56:58.061Z,36.74
2023-04-04T07:59:28.971Z,36.55
2023-04-04T08:02:00.955Z,37.98
2023-04-04T08:04:29.161Z,38.31
2023-04-04T08:06:57.955Z,38.12
2023-04-04T08:09:28.689Z,38.35
2023-04-04T08:11:59.556Z,38.52
2023-04-04T08:14:27.261Z,38.25
2023-04-04T08:16:54.327Z,38.71
2023-04-04T08:19:21.222Z,39.23
2023-04-04T08:21:51.281Z,38.44
2023-04-04T08:24:29.560Z,39.52
2023-04-04T08:27:05.345Z,39.46
2023-04-04T08:29:34.434Z,39.01
2023-04-04T08:32:03.186Z,40.12
2023-04-04T08:34:36.198Z,38.73
2023-04-04T08:43:01.277Z,37.82
2023-04-04T08:45:36.328Z,37.95
2023-04-04T08:48:12.088Z,38.97
2023-04-04T08:51:44.696Z,40.47
2023-04-04T08:54:16.765Z,39.35
2023-04-04T08:56:46.326Z,39.00
2023-04-04T08:59:16.036Z,40.16
2023-04-04T09:01:48.961Z,40.38
2023-04-04T09:04:19.092Z,40.28
2023-04-04T09:06:49.366Z,40.25
2023-04-04T09:12:15.195Z,40.93
2023-04-04T09:15:29.808Z,40.89
2023-04-04T09:17:56.848Z,41.32
2023-04-04T09:20:43.413Z,40.08
2023-04-04T09:23:15.446Z,39.53
2023-04-04T09:26:02.494Z,40.32
2023-04-04T09:28:31.546Z,42.33
2023-04-04T09:31:02.309Z,41.73
2023-04-04T09:33:29.354Z,42.38
2023-04-04T09:35:59.201Z,41.39
2023-04-04T09:38:30.281Z,42.63
2023-04-04T09:41:00.149Z,42.25
2023-04-04T09:43:34.386Z,42.57
2023-04-04T09:46:09.808Z,41.71
2023-04-04T09:48:39.187Z,41.33
2023-04-04T09:51:13.242Z,41.98
2023-04-04T09:53:45.525Z,41.37
2023-04-04T09:56:14.254Z,41.35
2023-04-04T09:58:52.434Z,40.49
2023-04-04T10:01:27.026Z,40.24
2023-04-04T10:03:54.750Z,40.12
2023-04-04T10:06:22.918Z,42.75
2023-04-04T10:09:07.725Z,41.67
2023-04-04T10:15:14.359Z,42.49
2023-04-04T10:17:44.774Z,42.17
2023-04-04T10:23:09.057Z,40.82
2023-04-04T10:25:44.022Z,41.72
2023-04-04T10:28:16.638Z,41.77
2023-04-04T10:31:06.698Z,41.16
2023-04-04T10:34:01.977Z,40.58
2023-04-04T10:36:54.292Z,40.68
2023-04-04T10:39:25.097Z,40.67
2023-04-04T10:41:53.056Z,40.20
2023-04-04T10:44:55.393Z,41.97
2023-04-04T10:47:26.988Z,41.90
2023-04-04T10:49:55.048Z,41.24
2023-04-04T10:52:23.834Z,42.14
2023-04-04T10:54:57.330Z,40.92
2023-04-04T10:57:24.639Z,40.59
2023-04-04T11:00:14.842Z,40.91
2023-04-04T11:02:57.837Z,39.62
2023-04-04T11:05:35.036Z,39.30
2023-04-04T11:08:09.312Z,40.03
2023-04-04T11:10:58.003Z,39.77
2023-04-04T11:13:39.936Z,39.63
2023-04-04T11:16:10.128Z,40.67
2023-04-04T11:18:43.955Z,39.84
2023-04-04T11:21:18.637Z,39.27
2023-04-04T11:23:51.480Z,40.19
2023-04-04T11:26:30.809Z,39.81
2023-04-04T11:28:58.738Z,39.88
2023-04-04T11:31:40.258Z,39.60
2023-04-04T11:34:12.534Z,40.24
2023-04-04T11:36:43.246Z,39.66
2023-04-04T11:39:29.636Z,39.40
2023-04-04T11:42:14.142Z,39.62
2023-04-04T11:45:02.606Z,39.54
2023-04-04T11:47:30.816Z,38.87
2023-04-04T11:49:59.128Z,39.41
2023-04-04T11:52:26.188Z,39.75
2023-04-04T11:54:53.166Z,38.43
2023-04-04T11:57:21.240Z,38.39
2023-04-04T11:59:53.929Z,38.95
2023-04-04T12:02:27.883Z,38.10
2023-04-04T12:04:57.853Z,39.63
2023-04-04T12:07:25.050Z,39.12
2023-04-04T12:09:56.238Z,39.97
2023-04-04T12:12:24.539Z,40.10
2023-04-04T12:14:58.130Z,38.92
2023-04-04T12:17:34.577Z,39.86
2023-04-04T12:20:01.491Z,39.35
2023-04-04T12:22:28.777Z,38.38
2023-04-04T12:24:59.152Z,39.23
2023-04-04T12:28:01.907Z,39.72
2023-04-04T12:30:29.144Z,39.72
2023-04-04T12:32:56.195Z,39.61
2023-04-04T12:35:23.147Z,38.56
2023-04-04T12:37:59.668Z,38.29
2023-04-04T12:40:30.186Z,38.88
2023-04-04T12:42:57.353Z,38.05
2023-04-04T12:45:26.837Z,38.85
2023-04-04T12:47:58.884Z,39.55
2023-04-04T12:50:28.601Z,38.33
2023-04-04T12:53:13.513Z,38.46
2023-04-04T12:55:50.098Z,38.96
2023-04-04T12:58:18.264Z,38.94
2023-04-04T13:00:45.735Z,39.26
2023-04-04T13:03:14.720Z,38.89
2023-04-04T13:05:43.371Z,39.75
2023-04-04T13:08:11.805Z,39.18
2023-04-04T13:11:07.134Z,38.80
2023-04-04T13:13:40.437Z,39.28
2023-04-04T13:16:08.802Z,39.18
2023-04-04T13:18:43.535Z,38.33
2023-04-04T13:21:12.471Z,38.63
2023-04-04T13:23:41.003Z,38.78
2023-04-04T13:26:09.651Z,39.94
2023-04-04T13:28:36.854Z,38.67
2023-04-04T13:31:05.212Z,39.16
2023-04-04T13:33:33.090Z,38.62
2023-04-04T13:36:00.480Z,38.66
2023-04-04T13:38:28.759Z,38.05
2023-04-04T13:40:58.296Z,39.48
2023-04-04T13:43:25.403Z,38.97
2023-04-04T13:45:53.446Z,39.78
2023-04-04T13:48:20.334Z,38.92
2023-04-04T13:50:51.451Z,38.74
2023-04-04T13:53:19.037Z,38.68
2023-04-04T13:56:01.692Z,39.06
2023-04-04T13:58:33.550Z,39.00
2023-04-04T14:01:04.348Z,38.94
2023-04-04T14:03:31.860Z,38.09
2023-04-04T14:08:47.213Z,38.15
2023-04-04T14:11:14.873Z,38.11
2023-04-04T14:13:42.117Z,37.37
2023-04-04T14:16:09.496Z,38.13
2023-04-04T14:18:36.449Z,37.45
2023-04-04T14:21:04.478Z,37.81
2023-04-04T14:23:32.213Z,37.55
2023-04-04T14:25:59.220Z,38.26
2023-04-04T14:28:26.007Z,38.48
2023-04-04T14:30:53.257Z,37.92
2023-04-04T14:33:20.128Z,38.40
2023-04-04T14:35:47.112Z,37.24
2023-04-04T14:38:13.881Z,37.71
2023-04-04T14:40:41.931Z,38.04
2023-04-04T14:43:08.937Z,38.73
2023-04-04T14:45:35.889Z,38.99
2023-04-04T14:48:03.868Z,38.28
2023-04-04T14:50:30.938Z,37.58
2023-04-04T14:52:57.761Z,37.76
2023-04-04T14:55:24.898Z,36.92
2023-04-04T14:58:01.885Z,36.96
2023-04-04T15:00:29.815Z,37.41
2023-04-04T15:02:56.873Z,37.19
2023-04-04T15:05:26.428Z,36.92
2023-04-04T15:07:53.229Z,36.15
2023-04-04T15:10:20.340Z,35.76
2023-04-04T15:12:53.415Z,36.34
2023-04-04T15:15:22.293Z,36.95
2023-04-04T15:17:51.298Z,37.73
2023-04-04T15:20:18.491Z,38.59
2023-04-04T15:22:46.021Z,38.22
2023-04-04T15:25:13.094Z,37.10
2023-04-04T15:27:40.174Z,36.29
2023-04-04T15:30:07.807Z,36.67
2023-04-04T15:32:34.587Z,37.45
2023-04-04T15:35:03.722Z,36.60
2023-04-04T15:37:31.238Z,37.66
2023-04-04T15:39:58.171Z,38.28
2023-04-04T15:42:25.859Z,37.11
2023-04-04T15:44:53.184Z,37.23
2023-04-04T15:47:20.085Z,36.93
2023-04-04T15:49:46.863Z,38.03
2023-04-04T15:52:13.956Z,37.88
2023-04-04T15:54:40.831Z,37.85
2023-04-04T15:57:07.810Z,37.67
2023-04-04T15:59:34.614Z,36.66
2023-04-04T16:02:05.205Z,37.21
2023-04-04T16:04:32.811Z,38.24
2023-04-04T16:06:59.565Z,38.55
2023-04-04T16:09:26.418Z,37.71
2023-04-04T16:11:55.589Z,37.52
2023-04-04T16:14:23.417Z,37.87
2023-04-04T16:16:53.223Z,39.46
2023-04-04T16:19:25.909Z,39.24
2023-04-04T16:21:53.250Z,38.30
2023-04-04T16:24:20.038Z,39.14
2023-04-04T16:26:48.936Z,39.04
2023-04-04T16:29:19.214Z,38.80
2023-04-04T16:31:46.471Z,38.84
2023-04-04T16:34:16.740Z,38.96
2023-04-04T16:36:43.652Z,39.54
2023-04-04T16:39:10.698Z,40.04
2023-04-04T16:41:41.083Z,38.61
2023-04-04T16:44:07.853Z,38.74
2023-04-04T16:46:34.627Z,39.21
2023-04-04T16:49:02.072Z,38.79
2023-04-04T16:51:28.946Z,38.76
2023-04-04T16:53:56.306Z,38.47
2023-04-04T16:56:23.991Z,38.10
2023-04-04T16:58:51.085Z,37.65
2023-04-04T17:01:20.858Z,38.15
2023-04-04T17:03:47.638Z,37.96
2023-04-04T17:06:17.237Z,38.38
2023-04-04T17:08:46.865Z,38.35
2023-04-04T17:11:13.982Z,37.89
2023-04-04T17:13:40.730Z,38.28
2023-04-04T17:16:08.521Z,38.09
2023-04-04T17:18:35.641Z,37.76
2023-04-04T17:21:02.765Z,38.00
2023-04-04T17:23:29.534Z,37.64
2023-04-04T17:25:56.342Z,38.78
2023-04-04T17:28:23.428Z,38.58
2023-04-04T17:30:50.752Z,38.53
2023-04-04T17:33:17.707Z,38.38
2023-04-04T17:35:48.139Z,38.90
2023-04-04T17:38:15.223Z,37.71
2023-04-04T17:40:42.210Z,37.51
2023-04-04T17:43:09.758Z,37.25
2023-04-04T17:45:36.520Z,37.43
2023-04-04T17:48:04.021Z,37.63
2023-04-04T17:50:30.806Z,37.37
2023-04-04T17:52:57.637Z,38.38
2023-04-04T17:55:24.352Z,37.41
2023-04-04T17:57:51.906Z,38.10
2023-04-04T18:00:19.439Z,37.61
2023-04-04T18:02:46.463Z,37.97
2023-04-04T18:05:13.620Z,38.09
2023-04-04T18:07:40.892Z,37.81
2023-04-04T18:10:08.360Z,37.91
2023-04-04T18:12:35.901Z,38.01
2023-04-04T18:15:04.046Z,37.92
2023-04-04T18:17:32.365Z,38.57
2023-04-04T18:20:00.942Z,37.82
2023-04-04T18:22:28.221Z,38.75
2023-04-04T18:24:55.028Z,38.49
2023-04-04T18:27:21.876Z,38.49
2023-04-04T18:29:49.051Z,38.21
2023-04-04T18:32:17.144Z,38.33
2023-04-04T18:34:44.013Z,38.66
2023-04-04T18:37:12.442Z,39.45
2023-04-04T18:39:39.319Z,39.25
2023-04-04T18:42:06.653Z,39.46
2023-04-04T18:44:39.609Z,38.61
2023-04-04T18:47:11.048Z,39.01
2023-04-04T18:49:38.393Z,39.14
2023-04-04T18:52:05.403Z,39.47
2023-04-04T18:54:32.149Z,39.36
2023-04-04T18:56:58.964Z,39.30
2023-04-04T18:59:26.320Z,39.33
2023-04-04T19:01:54.245Z,39.30
2023-04-04T19:04:21.773Z,39.52
2023-04-04T19:06:54.006Z,39.68
2023-04-04T19:09:21.435Z,39.53
2023-04-04T19:11:49.450Z,39.27
2023-04-04T19:14:16.650Z,39.54
2023-04-04T19:16:43.522Z,39.44
2023-04-04T19:19:10.372Z,39.73
2023-04-04T19:21:37.383Z,39.41
2023-04-04T19:24:04.482Z,39.14
2023-04-04T19:26:31.560Z,39.60
2023-04-04T19:28:59.049Z,39.42
2023-04-04T19:31:30.299Z,39.78
2023-04-04T19:33:57.687Z,38.94
2023-04-04T19:36:25.194Z,40.05
2023-04-04T19:38:55.567Z,40.37
2023-04-04T19:41:34.442Z,40.93
2023-04-04T19:44:01.268Z,40.72
2023-04-04T19:46:31.815Z,40.70
2023-04-04T19:49:04.890Z,40.85
2023-04-04T19:51:40.227Z,41.15
2023-04-04T19:54:11.844Z,41.10
2023-04-04T19:56:38.861Z,41.92
2023-04-04T19:59:09.065Z,41.99
2023-04-04T20:01:42.543Z,42.40
2023-04-04T20:04:14.367Z,43.29
2023-04-04T20:06:43.024Z,42.54
2023-04-04T20:09:30.674Z,42.78
2023-04-04T20:11:58.526Z,43.09
2023-04-04T20:14:25.469Z,43.70
2023-04-04T20:16:52.488Z,44.23
2023-04-04T20:19:20.707Z,45.04
2023-04-04T20:21:48.629Z,44.73
2023-04-04T20:24:17.321Z,45.63
2023-04-04T20:26:59.964Z,45.46
2023-04-04T20:29:31.734Z,46.15
2023-04-04T20:32:08.611Z,46.18
2023-04-04T20:34:49.917Z,45.36
2023-04-04T20:37:24.961Z,43.70
2023-04-04T20:40:14.756Z,45.65
2023-04-04T20:42:41.993Z,46.68
2023-04-04T20:45:08.722Z,46.55
2023-04-04T20:47:42.983Z,46.91
2023-04-04T20:50:16.257Z,47.61
2023-04-04T20:53:03.858Z,48.04
2023-04-04T20:55:33.814Z,48.17
2023-04-04T20:58:09.022Z,47.11
2023-04-04T21:00:40.520Z,47.24
2023-04-04T21:03:26.226Z,48.62
2023-04-04T21:05:55.149Z,48.59
2023-04-04T21:08:34.215Z,49.39
2023-04-04T21:11:01.266Z,49.00
2023-04-04T21:13:35.046Z,49.92
2023-04-04T21:16:13.378Z,49.73
2023-04-04T21:18:42.953Z,50.31
2023-04-04T21:21:13.882Z,51.34
2023-04-04T21:23:44.988Z,52.59
2023-04-04T21:26:20.103Z,51.95
2023-04-04T21:28:46.938Z,51.73
2023-04-04T21:31:16.582Z,51.08
2023-04-04T21:33:48.217Z,52.85
2023-04-04T21:36:24.779Z,53.18
2023-04-04T21:38:52.402Z,53.17
2023-04-04T21:41:26.352Z,53.58
2023-04-04T21:43:54.579Z,53.51
2023-04-04T21:46:26.703Z,55.02
2023-04-04T21:48:54.553Z,54.82
2023-04-04T21:51:21.766Z,54.94
2023-04-04T21:53:49.823Z,54.51
2023-04-04T21:56:17.710Z,56.39
2023-04-04T21:58:44.818Z,56.18
2023-04-04T22:01:11.972Z,57.45
2023-04-04T22:03:45.966Z,59.39
2023-04-04T22:06:15.088Z,58.89
2023-04-04T22:08:42.202Z,60.07
2023-04-04T22:11:13.635Z,58.52
2023-04-04T22:13:47.047Z,58.79
2023-04-04T22:16:20.013Z,59.47
2023-04-04T22:18:53.404Z,58.05
2023-04-04T22:21:27.927Z,58.41
2023-04-04T22:24:01.049Z,58.48
2023-04-04T22:26:34.423Z,59.02
2023-04-04T22:29:03.586Z,58.57
2023-04-04T22:31:34.533Z,58.20
2023-04-04T22:34:03.295Z,57.49
2023-04-04T22:36:30.576Z,58.87
2023-04-04T22:38:58.403Z,58.62
2023-04-04T22:41:27.762Z,58.80
2023-04-04T22:43:56.392Z,59.32
2023-04-04T22:46:23.797Z,58.69
2023-04-04T22:48:51.055Z,60.91
2023-04-04T22:51:17.884Z,62.03
2023-04-04T22:53:45.921Z,61.30
2023-04-04T22:56:12.700Z,62.20
2023-04-04T22:58:39.629Z,60.88
2023-04-04T23:01:06.703Z,61.11
2023-04-04T23:03:33.714Z,61.33
2023-04-04T23:06:00.732Z,60.63
2023-04-04T23:08:27.557Z,60.85
2023-04-04T23:10:54.382Z,61.71
2023-04-04T23:13:21.887Z,65.27
2023-04-04T23:15:49.508Z,65.20
2023-04-04T23:18:16.283Z,65.20
2023-04-04T23:20:43.459Z,64.76
2023-04-04T23:23:10.678Z,65.84
2023-04-04T23:25:37.602Z,67.53
2023-04-04T23:28:04.349Z,70.84
2023-04-04T23:30:31.711Z,69.36
2023-04-04T23:32:58.480Z,67.65
2023-04-04T23:35:25.227Z,70.43
2023-04-04T23:37:52.099Z,74.09
2023-04-04T23:40:18.915Z,75.06
2023-04-04T23:42:46.001Z,71.52
2023-04-04T23:45:13.325Z,71.48
2023-04-04T23:47:40.777Z,72.01
2023-04-04T23:50:08.193Z,71.46
2023-04-04T23:52:35.403Z,73.25
2023-04-04T23:55:02.156Z,73.15
2023-04-04T23:57:29.046Z,73.51
2023-04-04T23:59:55.974Z,74.10
